createdAt,value
2023-03-16T00:00:19.033Z,100.00
2023-03-16T00:04:19.244Z,100.00
2023-03-16T00:07:55.748Z,100.00
2023-03-16T00:11:36.932Z,100.00
2023-03-16T00:15:14.682Z,100.00
2023-03-16T00:19:03.373Z,100.00
2023-03-16T00:22:52.088Z,100.00
2023-03-16T00:26:40.795Z,100.00
2023-03-16T00:30:29.697Z,100.00
2023-03-16T00:34:18.421Z,100.00
2023-03-16T00:38:07.143Z,100.00
2023-03-16T00:41:18.479Z,100.00
2023-03-16T00:45:07.216Z,100.00
2023-03-16T00:48:56.112Z,100.00
2023-03-16T00:52:15.125Z,100.00
2023-03-16T00:56:00.399Z,100.00
2023-03-16T00:59:30.378Z,100.00
2023-03-16T01:03:03.347Z,100.00
2023-03-16T01:06:52.103Z,100.00
2023-03-16T01:10:40.749Z,100.00
2023-03-16T01:14:29.478Z,100.00
2023-03-16T01:18:18.127Z,100.00
2023-03-16T01:22:06.802Z,100.00
2023-03-16T01:25:54.430Z,100.00
2023-03-16T01:29:35.562Z,100.00
2023-03-16T01:33:16.799Z,100.00
2023-03-16T01:37:05.569Z,100.00
2023-03-16T01:40:56.990Z,100.00
2023-03-16T01:44:45.725Z,100.00
2023-03-16T01:48:25.045Z,100.00
2023-03-16T01:52:34.753Z,100.00
2023-03-16T01:56:23.537Z,100.00
2023-03-16T02:00:12.564Z,100.00
2023-03-16T02:04:04.185Z,100.00
2023-03-16T02:07:53.093Z,100.00
2023-03-16T02:11:42.573Z,100.00
2023-03-16T02:15:31.360Z,100.00
2023-03-16T02:19:20.197Z,100.00
2023-03-16T02:23:08.969Z,100.00
2023-03-16T02:26:59.078Z,100.00
2023-03-16T02:30:53.629Z,100.00
2023-03-16T02:34:34.815Z,100.00
2023-03-16T02:38:23.541Z,100.00
2023-03-16T02:42:13.979Z,100.00
2023-03-16T02:45:55.281Z,100.00
2023-03-16T02:49:44.014Z,100.00
2023-03-16T02:53:32.741Z,100.00
2023-03-16T02:57:21.456Z,100.00
2023-03-16T03:01:10.347Z,100.00
2023-03-16T03:04:50.800Z,100.00
2023-03-16T03:08:39.541Z,100.00
2023-03-16T03:12:28.259Z,100.00
2023-03-16T03:15:58.019Z,100.00
2023-03-16T03:19:39.455Z,100.00
2023-03-16T03:23:28.147Z,100.00
2023-03-16T03:27:16.929Z,100.00
2023-03-16T03:31:05.758Z,100.00
2023-03-16T03:34:34.536Z,100.00
2023-03-16T03:38:23.340Z,100.00
2023-03-16T03:42:12.234Z,100.00
2023-03-16T03:45:43.475Z,100.00
2023-03-16T03:49:32.215Z,100.00
2023-03-16T03:53:20.987Z,100.00
2023-03-16T03:56:55.236Z,100.00
2023-03-16T04:00:36.760Z,100.00
2023-03-16T04:04:25.552Z,100.00
2023-03-16T04:08:14.341Z,100.00
2023-03-16T04:11:57.023Z,100.00
2023-03-16T04:15:44.417Z,100.00
2023-03-16T04:19:33.212Z,100.00
2023-03-16T04:23:12.920Z,100.00
2023-03-16T04:26:51.752Z,100.00
2023-03-16T04:30:40.563Z,100.00
2023-03-16T04:34:32.248Z,100.00
2023-03-16T04:38:20.999Z,100.00
2023-03-16T04:42:15.551Z,100.00
2023-03-16T04:46:04.453Z,100.00
2023-03-16T04:49:53.220Z,100.00
2023-03-16T04:53:41.970Z,100.00
2023-03-16T04:57:30.692Z,100.00
2023-03-16T05:01:19.539Z,100.00
2023-03-16T05:04:58.193Z,100.00
2023-03-16T05:08:46.971Z,100.00
2023-03-16T05:12:35.678Z,100.00
2023-03-16T05:16:15.756Z,100.00
2023-03-16T05:20:04.540Z,100.00
2023-03-16T05:23:53.317Z,100.00
2023-03-16T05:27:42.108Z,100.00
2023-03-16T05:31:14.034Z,100.00
2023-03-16T05:34:59.169Z,100.00
2023-03-16T05:38:47.979Z,100.00
2023-03-16T05:42:36.731Z,100.00
2023-03-16T05:46:24.383Z,100.00
2023-03-16T05:50:13.142Z,100.00
2023-03-16T05:54:01.929Z,100.00
2023-03-16T05:57:51.022Z,100.00
2023-03-16T06:01:32.220Z,100.00
2023-03-16T06:05:20.965Z,100.00
2023-03-16T06:08:59.558Z,100.00
2023-03-16T06:12:38.290Z,100.00
2023-03-16T06:16:16.991Z,100.00
2023-03-16T06:19:45.742Z,100.00
2023-03-16T06:23:33.590Z,100.00
2023-03-16T06:27:12.255Z,100.00
2023-03-16T06:30:23.458Z,100.00
2023-03-16T06:34:11.215Z,100.00
2023-03-16T06:37:51.673Z,100.00
2023-03-16T06:41:43.135Z,100.00
2023-03-16T06:45:12.601Z,100.00
2023-03-16T06:48:51.343Z,100.00
2023-03-16T06:52:19.479Z,100.00
2023-03-16T06:56:01.970Z,100.00
2023-03-16T06:59:40.718Z,100.00
2023-03-16T07:03:19.371Z,100.00
2023-03-16T07:07:08.709Z,100.00
2023-03-16T07:10:07.631Z,100.00
2023-03-16T07:13:21.628Z,100.00
2023-03-16T07:16:44.577Z,100.00
2023-03-16T07:20:14.608Z,100.00
2023-03-16T07:23:53.721Z,100.00
2023-03-16T07:27:45.208Z,100.00
2023-03-16T07:31:29.567Z,100.00
2023-03-16T07:35:02.881Z,100.00
2023-03-16T07:39:03.342Z,100.00
2023-03-16T07:42:52.428Z,100.00
2023-03-16T07:46:50.324Z,100.00
2023-03-16T07:50:31.306Z,100.00
2023-03-16T07:54:07.316Z,100.00
2023-03-16T07:57:47.732Z,100.00
2023-03-16T08:01:29.624Z,100.00
2023-03-16T08:05:13.740Z,100.00
2023-03-16T08:08:56.533Z,100.00
2023-03-16T08:12:44.677Z,100.00
2023-03-16T08:16:09.950Z,100.00
2023-03-16T08:20:01.624Z,100.00
2023-03-16T08:23:51.121Z,100.00
2023-03-16T08:27:45.496Z,100.00
2023-03-16T08:31:35.187Z,100.00
2023-03-16T08:35:17.618Z,100.00
2023-03-16T08:39:08.962Z,100.00
2023-03-16T08:42:52.790Z,100.00
2023-03-16T08:46:43.128Z,100.00
2023-03-16T08:50:34.866Z,100.00
2023-03-16T08:54:34.188Z,100.00
2023-03-16T08:58:32.428Z,100.00
2023-03-16T09:02:23.124Z,100.00
2023-03-16T09:06:12.394Z,100.00
2023-03-16T09:10:02.704Z,100.00
2023-03-16T09:13:53.029Z,100.00
2023-03-16T09:17:41.576Z,100.00
2023-03-16T09:21:33.789Z,100.00
2023-03-16T09:25:19.956Z,100.00
2023-03-16T09:29:09.435Z,100.00
2023-03-16T09:32:58.954Z,100.00
2023-03-16T09:36:48.809Z,99.11
2023-03-16T09:40:39.044Z,98.14
2023-03-16T09:44:43.424Z,95.53
2023-03-16T09:48:04.798Z,95.48
2023-03-16T09:51:39.326Z,94.57
2023-03-16T09:56:00.930Z,93.36
2023-03-16T09:59:49.600Z,93.42
2023-03-16T10:03:21.486Z,93.59
2023-03-16T10:06:52.674Z,93.77
2023-03-16T10:10:26.643Z,93.00
2023-03-16T10:14:37.271Z,90.66
2023-03-16T10:18:21.103Z,88.94
2023-03-16T10:22:03.905Z,88.24
2023-03-16T10:25:32.873Z,87.21
2023-03-16T10:28:53.814Z,86.74
2023-03-16T10:32:31.396Z,86.27
2023-03-16T10:36:31.054Z,86.54
2023-03-16T10:40:12.146Z,86.26
2023-03-16T10:43:55.704Z,85.84
2023-03-16T10:47:31.761Z,85.36
2023-03-16T10:51:24.036Z,84.15
2023-03-16T10:54:51.550Z,81.88
2023-03-16T10:58:30.629Z,78.52
2023-03-16T11:01:49.387Z,76.04
2023-03-16T11:05:26.111Z,75.89
2023-03-16T11:09:09.297Z,75.31
2023-03-16T11:13:02.393Z,74.53
2023-03-16T11:17:00.343Z,74.09
2023-03-16T11:20:05.808Z,72.62
2023-03-16T11:23:39.517Z,71.46
2023-03-16T11:27:35.357Z,70.51
2023-03-16T11:31:14.066Z,70.71
2023-03-16T11:34:47.674Z,71.33
2023-03-16T11:38:49.348Z,71.67
2023-03-16T11:42:17.421Z,71.84
2023-03-16T11:46:14.682Z,72.18
2023-03-16T11:49:46.349Z,71.72
2023-03-16T11:54:10.730Z,72.50
2023-03-16T11:58:02.783Z,72.12
2023-03-16T12:01:43.051Z,72.01
2023-03-16T12:05:28.376Z,72.33
2023-03-16T12:09:26.430Z,72.87
2023-03-16T12:13:16.839Z,73.35
2023-03-16T12:17:13.948Z,73.13
2023-03-16T12:20:55.577Z,72.93
2023-03-16T12:24:34.440Z,72.98
2023-03-16T12:28:37.103Z,72.88
2023-03-16T12:32:53.362Z,73.36
2023-03-16T12:36:50.018Z,74.03
2023-03-16T12:40:48.041Z,72.85
2023-03-16T12:44:40.405Z,72.67
2023-03-16T12:48:16.753Z,71.38
2023-03-16T12:51:49.253Z,72.41
2023-03-16T12:56:00.877Z,72.97
2023-03-16T12:59:42.466Z,71.93
2023-03-16T13:03:31.586Z,70.81
2023-03-16T13:07:11.937Z,70.89
2023-03-16T13:11:07.111Z,70.30
2023-03-16T13:14:49.766Z,70.85
2023-03-16T13:18:27.815Z,70.70
2023-03-16T13:22:14.642Z,71.32
2023-03-16T13:26:11.158Z,70.41
2023-03-16T13:29:31.052Z,70.09
2023-03-16T13:33:12.960Z,71.66
2023-03-16T13:36:56.398Z,74.25
2023-03-16T13:40:57.999Z,76.12
2023-03-16T13:45:19.253Z,76.87
2023-03-16T13:48:34.332Z,76.48
2023-03-16T13:52:26.471Z,76.92
2023-03-16T13:55:56.512Z,77.90
2023-03-16T13:59:28.937Z,77.49
2023-03-16T14:03:17.704Z,76.78
2023-03-16T14:06:34.691Z,76.64
2023-03-16T14:10:13.471Z,76.63
2023-03-16T14:14:00.859Z,76.36
2023-03-16T14:17:49.643Z,74.50
2023-03-16T14:21:26.649Z,75.14
2023-03-16T14:24:59.006Z,74.14
2023-03-16T14:28:47.993Z,73.78
2023-03-16T14:32:17.479Z,73.23
2023-03-16T14:36:03.456Z,73.08
2023-03-16T14:39:49.189Z,71.60
2023-03-16T14:43:40.678Z,71.27
2023-03-16T14:47:19.302Z,71.57
2023-03-16T14:51:00.547Z,71.71
2023-03-16T14:54:58.284Z,72.81
2023-03-16T14:58:10.458Z,73.01
2023-03-16T15:01:39.128Z,73.13
2023-03-16T15:05:17.908Z,73.46
2023-03-16T15:08:42.074Z,72.64
2023-03-16T15:12:30.806Z,71.63
2023-03-16T15:16:04.737Z,72.75
2023-03-16T15:19:43.517Z,72.81
2023-03-16T15:22:51.736Z,73.52
2023-03-16T15:26:26.371Z,72.88
2023-03-16T15:30:15.130Z,72.93
2023-03-16T15:33:53.784Z,73.74
2023-03-16T15:37:33.102Z,72.39
2023-03-16T15:41:18.819Z,73.42
2023-03-16T15:44:58.409Z,74.39
2023-03-16T15:48:10.984Z,75.02
2023-03-16T15:51:44.817Z,75.49
2023-03-16T15:55:36.632Z,76.26
2023-03-16T15:59:25.383Z,77.55
2023-03-16T16:03:26.192Z,77.48
2023-03-16T16:06:50.165Z,77.05
2023-03-16T16:10:08.773Z,77.71
2023-03-16T16:13:44.745Z,78.12
2023-03-16T16:17:47.887Z,77.95
2023-03-16T16:21:07.283Z,78.26
2023-03-16T16:24:56.271Z,78.40
2023-03-16T16:28:56.844Z,78.20
2023-03-16T16:32:45.804Z,78.12
2023-03-16T16:36:07.397Z,78.17
2023-03-16T16:39:27.458Z,77.90
2023-03-16T16:43:16.248Z,78.04
2023-03-16T16:46:54.877Z,78.14
2023-03-16T16:50:43.712Z,78.41
2023-03-16T16:54:16.071Z,78.27
2023-03-16T16:58:09.822Z,78.58
2023-03-16T17:02:01.214Z,78.90
2023-03-16T17:05:58.404Z,79.29
2023-03-16T17:09:47.185Z,79.38
2023-03-16T17:13:35.984Z,79.72
2023-03-16T17:17:19.427Z,80.29
2023-03-16T17:20:55.177Z,80.88
2023-03-16T17:24:36.801Z,81.06
2023-03-16T17:28:18.868Z,81.45
2023-03-16T17:31:41.254Z,81.47
2023-03-16T17:35:19.922Z,81.76
2023-03-16T17:39:17.932Z,82.17
2023-03-16T17:43:18.419Z,82.42
2023-03-16T17:46:56.559Z,82.51
2023-03-16T17:50:20.894Z,82.98
2023-03-16T17:54:01.039Z,83.14
2023-03-16T17:57:49.880Z,83.78
2023-03-16T18:01:31.462Z,84.03
2023-03-16T18:05:05.985Z,84.39
2023-03-16T18:08:55.092Z,84.88
2023-03-16T18:12:44.079Z,85.21
2023-03-16T18:17:10.116Z,85.46
2023-03-16T18:20:32.819Z,85.92
2023-03-16T18:24:17.277Z,86.51
2023-03-16T18:27:56.983Z,86.54
2023-03-16T18:31:45.774Z,87.07
2023-03-16T18:35:27.424Z,87.14
2023-03-16T18:39:09.175Z,87.35
2023-03-16T18:42:23.960Z,87.63
2023-03-16T18:45:55.891Z,88.38
2023-03-16T18:49:36.358Z,88.17
2023-03-16T18:53:27.978Z,88.65
2023-03-16T18:57:19.796Z,89.24
2023-03-16T19:00:55.064Z,89.53
2023-03-16T19:04:46.231Z,89.90
2023-03-16T19:08:34.875Z,90.59
2023-03-16T19:12:22.500Z,90.70
2023-03-16T19:16:04.114Z,91.21
2023-03-16T19:19:53.241Z,91.72
2023-03-16T19:23:47.496Z,92.01
2023-03-16T19:27:36.267Z,92.78
2023-03-16T19:31:05.084Z,93.10
2023-03-16T19:34:46.487Z,93.52
2023-03-16T19:38:00.661Z,94.32
2023-03-16T19:41:40.204Z,94.72
2023-03-16T19:45:29.238Z,95.05
2023-03-16T19:48:53.610Z,95.54
2023-03-16T19:52:35.056Z,95.62
2023-03-16T19:56:06.635Z,96.11
2023-03-16T19:59:39.414Z,96.31
2023-03-16T20:03:16.639Z,96.70
2023-03-16T20:06:59.665Z,96.76
2023-03-16T20:10:45.709Z,97.08
2023-03-16T20:14:33.714Z,97.33
2023-03-16T20:18:07.860Z,97.60
2023-03-16T20:21:56.671Z,97.87
2023-03-16T20:25:28.842Z,98.36
2023-03-16T20:28:59.089Z,98.49
2023-03-16T20:32:38.854Z,98.48
2023-03-16T20:36:27.717Z,98.75
2023-03-16T20:39:55.059Z,98.99
2023-03-16T20:43:26.632Z,99.07
2023-03-16T20:46:39.057Z,99.95
2023-03-16T20:49:53.200Z,100.00
2023-03-16T20:53:31.782Z,100.00
2023-03-16T20:57:13.802Z,100.00
2023-03-16T21:01:16.330Z,100.00
2023-03-16T21:05:05.178Z,100.00
2023-03-16T21:08:53.970Z,100.00
2023-03-16T21:12:34.956Z,100.00
2023-03-16T21:15:54.795Z,100.00
2023-03-16T21:19:36.068Z,100.00
2023-03-16T21:23:24.762Z,100.00
2023-03-16T21:26:53.704Z,100.00
2023-03-16T21:30:45.298Z,100.00
2023-03-16T21:34:36.812Z,100.00
2023-03-16T21:38:18.063Z,100.00
2023-03-16T21:42:05.255Z,100.00
2023-03-16T21:45:53.977Z,100.00
2023-03-16T21:49:42.703Z,100.00
2023-03-16T21:53:31.579Z,100.00
2023-03-16T21:57:20.349Z,100.00
2023-03-16T22:01:01.744Z,100.00
2023-03-16T22:04:46.070Z,100.00
2023-03-16T22:08:34.966Z,100.00
2023-03-16T22:12:26.502Z,100.00
2023-03-16T22:16:15.244Z,100.00
2023-03-16T22:20:03.977Z,100.00
2023-03-16T22:23:52.649Z,100.00
2023-03-16T22:27:41.364Z,100.00
2023-03-16T22:31:30.046Z,100.00
2023-03-16T22:35:36.680Z,100.00
2023-03-16T22:39:18.741Z,100.00
2023-03-16T22:42:57.368Z,100.00
2023-03-16T22:46:33.562Z,100.00
2023-03-16T22:50:13.442Z,100.00
2023-03-16T22:54:04.815Z,100.00
2023-03-16T22:57:53.502Z,100.00
2023-03-16T23:01:20.680Z,100.00
2023-03-16T23:05:07.977Z,100.00
2023-03-16T23:08:56.654Z,100.00
2023-03-16T23:12:45.417Z,100.00
2023-03-16T23:16:27.023Z,100.00
2023-03-16T23:20:18.566Z,100.00
2023-03-16T23:24:07.225Z,100.00
2023-03-16T23:27:58.881Z,100.00
2023-03-16T23:31:45.422Z,100.00
2023-03-16T23:35:24.098Z,100.00
2023-03-16T23:39:05.455Z,100.00
2023-03-16T23:42:54.275Z,100.00
2023-03-16T23:46:33.413Z,100.00
2023-03-16T23:50:22.127Z,100.00
2023-03-16T23:54:13.682Z,100.00
2023-03-16T23:58:02.433Z,100.00
